| time (UTC) | temp F | wind direction | speed MPH | gust MPH | rain 1hr in | rain 24hr in | rain mn in | humidity % | barometer mb |
| 20260508145413 | 55 | 277 | 6.0 | 7.0 | 0.00 | 0.02 | 0.02 | 68 | 1010.9 |
| 20260508144910 | 55 | 277 | 8.0 | 9.0 | 0.00 | 0.02 | 0.02 | 68 | 1010.7 |
| 20260508144408 | 55 | 256 | 5.0 | 7.0 | 0.00 | 0.02 | 0.02 | 68 | 1010.7 |
| 20260508143905 | 55 | 235 | 8.0 | 9.0 | 0.00 | 0.02 | 0.02 | 67 | 1010.7 |
| 20260508143403 | 55 | 282 | 10.0 | 11.0 | 0.00 | 0.02 | 0.02 | 67 | 1011.0 |
| 20260508142859 | 55 | 255 | 7.0 | 7.0 | 0.00 | 0.02 | 0.02 | 66 | 1010.9 |
| 20260508142356 | 55 | 243 | 9.0 | 10.0 | 0.00 | 0.02 | 0.02 | 67 | 1010.7 |
| 20260508141852 | 55 | 239 | 7.0 | 8.0 | 0.00 | 0.02 | 0.02 | 67 | 1010.7 |
| 20260508141349 | 55 | 229 | 7.0 | 8.0 | 0.00 | 0.02 | 0.02 | 67 | 1010.9 |
| 20260508140847 | 54 | 252 | 5.0 | 6.0 | 0.00 | 0.02 | 0.02 | 68 | 1010.6 |
| 20260508140344 | 54 | 249 | 3.0 | 4.0 | 0.00 | 0.02 | 0.02 | 70 | 1010.8 |
| 20260508135839 | 55 | 241 | 8.0 | 9.0 | 0.00 | 0.02 | 0.02 | 69 | 1010.7 |
| 20260508135336 | 54 | 291 | 5.0 | 7.0 | 0.00 | 0.02 | 0.02 | 69 | 1010.9 |
| 20260508134832 | 54 | 266 | 10.0 | 11.0 | 0.00 | 0.02 | 0.02 | 68 | 1010.8 |
| 20260508134329 | 53 | 277 | 6.0 | 7.0 | 0.00 | 0.02 | 0.02 | 69 | 1010.9 |
| 20260508133825 | 53 | 245 | 7.0 | 9.0 | 0.00 | 0.02 | 0.02 | 70 | 1011.0 |
| 20260508133324 | 53 | 279 | 5.0 | 6.0 | 0.00 | 0.02 | 0.02 | 70 | 1010.8 |
| 20260508132820 | 53 | 242 | 6.0 | 7.0 | 0.00 | 0.02 | 0.02 | 70 | 1010.9 |
| 20260508132318 | 53 | 270 | 7.0 | 8.0 | 0.00 | 0.02 | 0.02 | 70 | 1010.9 |
| 20260508131814 | 52 | 247 | 5.0 | 6.0 | 0.00 | 0.02 | 0.02 | 72 | 1010.7 |
| 20260508131310 | 52 | 286 | 7.0 | 8.0 | 0.00 | 0.02 | 0.02 | 71 | 1010.8 |
| 20260508130807 | 51 | 246 | 7.0 | 9.0 | 0.00 | 0.02 | 0.02 | 71 | 1010.7 |
| 20260508130304 | 52 | 240 | 6.0 | 7.0 | 0.00 | 0.02 | 0.02 | 72 | 1010.8 |
| 20260508125800 | 52 | 246 | 4.0 | 4.0 | 0.00 | 0.02 | 0.02 | 72 | 1010.8 |
| 20260508125256 | 51 | 212 | 3.0 | 3.0 | 0.00 | 0.02 | 0.02 | 72 | 1010.9 |
| 20260508124754 | 51 | 220 | 7.0 | 8.0 | 0.00 | 0.02 | 0.02 | 71 | 1010.8 |
| 20260508124251 | 51 | 260 | 7.0 | 10.0 | 0.00 | 0.02 | 0.02 | 71 | 1010.6 |
| 20260508123749 | 51 | 260 | 9.0 | 10.0 | 0.00 | 0.02 | 0.02 | 71 | 1010.7 |
| 20260508123247 | 51 | 260 | 9.0 | 10.0 | 0.00 | 0.02 | 0.02 | 71 | 1010.6 |
| 20260508122743 | 50 | 248 | 5.0 | 6.0 | 0.00 | 0.02 | 0.02 | 73 | 1010.8 |
| 20260508122240 | 50 | 225 | 5.0 | 6.0 | 0.00 | 0.02 | 0.02 | 73 | 1010.8 |
| 20260508121737 | 50 | 250 | 3.0 | 3.0 | 0.00 | 0.02 | 0.02 | 73 | 1010.8 |
| 20260508121236 | 50 | 234 | 4.0 | 4.0 | 0.00 | 0.02 | 0.02 | 73 | 1010.7 |
| 20260508120733 | 49 | 252 | 6.0 | 7.0 | 0.00 | 0.02 | 0.02 | 73 | 1010.6 |
| 20260508120231 | 49 | 219 | 4.0 | 4.0 | 0.00 | 0.02 | 0.02 | 73 | 1010.6 |
| 20260508115728 | 49 | 188 | 4.0 | 4.0 | 0.00 | 0.02 | 0.02 | 74 | 1010.5 |
| 20260508115226 | 49 | 243 | 5.0 | 7.0 | 0.00 | 0.02 | 0.02 | 73 | 1010.7 |
| 20260508114722 | 49 | 241 | 6.0 | 8.0 | 0.00 | 0.02 | 0.02 | 74 | 1010.4 |
| 20260508114219 | 49 | 180 | 3.0 | 4.0 | 0.00 | 0.02 | 0.02 | 73 | 1010.3 |
| 20260508113715 | 48 | 246 | 3.0 | 3.0 | 0.00 | 0.02 | 0.02 | 74 | 1010.3 |
| 20260508113214 | 48 | 238 | 3.0 | 4.0 | 0.00 | 0.02 | 0.02 | 74 | 1010.4 |
| 20260508112709 | 47 | 240 | 5.0 | 6.0 | 0.00 | 0.02 | 0.02 | 75 | 1010.4 |
| 20260508112207 | 47 | 219 | 4.0 | 4.0 | 0.00 | 0.02 | 0.02 | 75 | 1010.2 |
| 20260508111703 | 47 | 238 | 4.0 | 6.0 | 0.00 | 0.02 | 0.02 | 75 | 1010.2 |
| 20260508111200 | 47 | 232 | 6.0 | 8.0 | 0.00 | 0.02 | 0.02 | 75 | 1010.4 |
| 20260508110658 | 47 | 216 | 3.0 | 3.0 | 0.00 | 0.02 | 0.02 | 76 | 1010.2 |
| 20260508110154 | 46 | 240 | 4.0 | 4.0 | 0.00 | 0.02 | 0.02 | 76 | 1010.5 |
| 20260508105649 | 46 | 231 | 5.0 | 7.0 | 0.00 | 0.02 | 0.02 | 76 | 1010.3 |
| 20260508105146 | 46 | 227 | 4.0 | 4.0 | 0.00 | 0.02 | 0.02 | 76 | 1010.3 |
| 20260508104644 | 46 | 225 | 4.0 | 4.0 | 0.00 | 0.02 | 0.02 | 76 | 1010.3 |
| 20260508104140 | 46 | 229 | 3.0 | 4.0 | 0.00 | 0.02 | 0.02 | 77 | 1010.3 |
| 20260508103637 | 46 | 244 | 4.0 | 4.0 | 0.00 | 0.02 | 0.02 | 77 | 1010.3 |
| 20260508103135 | 46 | 228 | 4.0 | 4.0 | 0.00 | 0.02 | 0.02 | 77 | 1010.1 |
| 20260508102632 | 46 | 218 | 3.0 | 3.0 | 0.00 | 0.02 | 0.02 | 78 | 1010.2 |
| 20260508102130 | 46 | 228 | 3.0 | 3.0 | 0.00 | 0.02 | 0.02 | 78 | 1009.9 |
| 20260508101622 | 45 | 222 | 3.0 | 3.0 | 0.00 | 0.02 | 0.02 | 79 | 1010.1 |
| 20260508101119 | 45 | 214 | 2.0 | 3.0 | 0.00 | 0.02 | 0.02 | 80 | 1010.1 |
| 20260508100617 | 45 | 203 | 2.0 | 2.0 | 0.00 | 0.02 | 0.02 | 80 | 1010.2 |
| 20260508100114 | 45 | 199 | 3.0 | 3.0 | 0.00 | 0.02 | 0.02 | 80 | 1009.8 |
| 20260508095611 | 45 | 196 | 2.0 | 2.0 | 0.00 | 0.02 | 0.02 | 80 | 1010.1 |
| 20260508095108 | 46 | 204 | 2.0 | 2.0 | 0.00 | 0.02 | 0.02 | 80 | 1009.8 |
| 20260508094605 | 46 | 191 | 2.0 | 2.0 | 0.00 | 0.02 | 0.02 | 80 | 1009.9 |
| 20260508094101 | 46 | 217 | 3.0 | 3.0 | 0.00 | 0.02 | 0.02 | 81 | 1009.9 |
| 20260508093559 | 46 | 201 | 2.0 | 3.0 | 0.00 | 0.02 | 0.02 | 81 | 1009.9 |
| 20260508093057 | 46 | 204 | 3.0 | 3.0 | 0.00 | 0.02 | 0.02 | 82 | 1009.9 |
| 20260508092553 | 46 | 155 | 2.0 | 2.0 | 0.00 | 0.02 | 0.02 | 82 | 1010.0 |
| 20260508092052 | 46 | 159 | 2.0 | 2.0 | 0.00 | 0.02 | 0.02 | 82 | 1010.1 |
| 20260508091549 | 46 | 151 | 1.0 | 1.0 | 0.00 | 0.02 | 0.02 | 82 | 1010.2 |
| 20260508091046 | 45 | 149 | 1.0 | 1.0 | 0.00 | 0.02 | 0.02 | 82 | 1010.2 |
| 20260508090544 | 45 | 164 | 2.0 | 2.0 | 0.00 | 0.02 | 0.02 | 83 | 1010.2 |
| 20260508090040 | 45 | 191 | 2.0 | 2.0 | 0.00 | 0.02 | 0.02 | 83 | 1010.1 |
| 20260508085536 | 45 | 162 | 2.0 | 2.0 | 0.00 | 0.02 | 0.02 | 84 | 1010.0 |
| 20260508085034 | 45 | 169 | 2.0 | 2.0 | 0.00 | 0.02 | 0.02 | 84 | 1010.1 |
| 20260508084530 | 46 | 147 | 1.0 | 1.0 | 0.00 | 0.02 | 0.02 | 84 | 1010.4 |
| 20260508084028 | 46 | 156 | 1.0 | 2.0 | 0.00 | 0.02 | 0.02 | 84 | 1010.0 |
| 20260508083525 | 46 | 181 | 2.0 | 2.0 | 0.00 | 0.02 | 0.02 | 85 | 1010.4 |
| 20260508083022 | 45 | 157 | 2.0 | 2.0 | 0.00 | 0.02 | 0.02 | 85 | 1010.1 |
| 20260508082517 | 45 | 153 | 1.0 | 2.0 | 0.00 | 0.02 | 0.02 | 86 | 1010.1 |
| 20260508082015 | 45 | 154 | 1.0 | 2.0 | 0.00 | 0.02 | 0.02 | 87 | 1010.3 |
| 20260508081512 | 46 | 148 | 1.0 | 1.0 | 0.00 | 0.02 | 0.02 | 87 | 1010.2 |
| 20260508081008 | 46 | 165 | 2.0 | 2.0 | 0.00 | 0.02 | 0.02 | 88 | 1010.3 |
| 20260508080506 | 45 | 150 | 1.0 | 2.0 | 0.00 | 0.02 | 0.02 | 87 | 1010.3 |
| 20260508080004 | 46 | 165 | 2.0 | 2.0 | 0.00 | 0.02 | 0.02 | 88 | 1010.3 |
| 20260508075500 | 46 | 155 | 1.0 | 2.0 | 0.00 | 0.02 | 0.02 | 88 | 1010.5 |
| 20260508074957 | 46 | 145 | 1.0 | 1.0 | 0.00 | 0.02 | 0.02 | 88 | 1010.3 |
| 20260508074455 | 46 | 148 | 2.0 | 2.0 | 0.00 | 0.02 | 0.02 | 88 | 1010.4 |
| 20260508073951 | 47 | 141 | 1.0 | 2.0 | 0.00 | 0.02 | 0.02 | 88 | 1010.4 |
| 20260508073449 | 46 | 131 | 0.0 | 1.0 | 0.00 | 0.02 | 0.02 | 87 | 1010.4 |
| 20260508072946 | 46 | 101 | 1.0 | 1.0 | 0.00 | 0.02 | 0.02 | 87 | 1010.6 |
| 20260508072442 | 47 | 113 | 1.0 | 1.0 | 0.00 | 0.02 | 0.02 | 87 | 1010.6 |
| 20260508071939 | 47 | 91 | 0.0 | 0.0 | 0.00 | 0.02 | 0.02 | 87 | 1010.9 |
| 20260508071438 | 47 | 85 | 1.0 | 1.0 | 0.00 | 0.02 | 0.02 | 87 | 1011.0 |
| 20260508070935 | 47 | 81 | 1.0 | 1.0 | 0.00 | 0.02 | 0.02 | 87 | 1011.1 |
| 20260508070432 | 47 | 28 | 5.0 | 6.0 | 0.00 | 0.02 | 0.02 | 87 | 1011.3 |
| 20260508065930 | 47 | 73 | 4.0 | 4.0 | 0.00 | 0.02 | 0.02 | 87 | 1011.4 |
| 20260508065428 | 47 | 143 | 1.0 | 2.0 | 0.00 | 0.02 | 0.02 | 87 | 1010.9 |
| 20260508064925 | 47 | 195 | 0.0 | 1.0 | 0.00 | 0.02 | 0.02 | 87 | 1010.9 |
| 20260508064422 | 47 | 195 | 0.0 | 1.0 | 0.00 | 0.02 | 0.02 | 87 | 1010.8 |
| 20260508063920 | 47 | 197 | 1.0 | 1.0 | 0.00 | 0.02 | 0.02 | 87 | 1011.0 |
| 20260508063418 | 47 | 218 | 0.0 | 1.0 | 0.00 | 0.02 | 0.02 | 87 | 1011.1 |
| 20260508062915 | 48 | 248 | 0.0 | 0.0 | 0.00 | 0.02 | 0.02 | 85 | 1011.1 |
| 20260508062413 | 48 | 249 | 0.0 | 0.0 | 0.00 | 0.02 | 0.02 | 83 | 1011.4 |
| 20260508061909 | 48 | 245 | 1.0 | 2.0 | 0.05 | 0.02 | 0.02 | 81 | 1011.6 |
| 20260508061407 | 48 | 220 | 2.0 | 3.0 | 0.05 | 0.02 | 0.02 | 80 | 1011.7 |
| 20260508060903 | 48 | 239 | 2.0 | 3.0 | 0.00 | 0.01 | 0.01 | 80 | 1011.7 |
| 20260508060401 | 48 | 201 | 2.0 | 2.0 | 0.07 | 0.01 | 0.01 | 80 | 1011.8 |
| 20260508055901 | 49 | 257 | 4.0 | 4.0 | 0.07 | 0.01 | 0.01 | 78 | 1012.0 |
| 20260508055359 | 49 | 259 | 6.0 | 6.0 | 0.00 | 0.00 | 0.00 | 77 | 1011.8 |
| 20260508054855 | 49 | 197 | 2.0 | 2.0 | 0.00 | 0.00 | 0.00 | 77 | 1011.8 |
| 20260508054352 | 49 | 228 | 4.0 | 4.0 | 0.00 | 0.00 | 0.00 | 76 | 1011.7 |
| 20260508053849 | 49 | 271 | 3.0 | 3.0 | 0.00 | 0.00 | 0.00 | 77 | 1011.9 |
| 20260508053346 | 49 | 250 | 4.0 | 4.0 | 0.00 | 0.00 | 0.00 | 77 | 1011.9 |
| 20260508052844 | 49 | 270 | 10.0 | 10.0 | 0.00 | 0.00 | 0.00 | 76 | 1012.1 |
| 20260508052341 | 49 | 292 | 5.0 | 6.0 | 0.00 | 0.00 | 0.00 | 77 | 1012.0 |
| 20260508051837 | 49 | 298 | 3.0 | 3.0 | 0.00 | 0.00 | 0.00 | 77 | 1011.9 |
| 20260508051332 | 49 | 296 | 2.0 | 2.0 | 0.00 | 0.00 | 0.00 | 76 | 1011.6 |
| 20260508050829 | 49 | 62 | 1.0 | 1.0 | 0.00 | 0.00 | 0.00 | 75 | 1011.6 |
| 20260508050326 | 0 | 0.0 | 0.0 | 0.00 | 0.00 | 0.00 | 1011.3 | ||
| 20260508045822 | 49 | 216 | 3.0 | 3.0 | 0.00 | 0.00 | 0.00 | 72 | 1011.1 |
| 20260508045320 | 49 | 216 | 3.0 | 3.0 | 0.00 | 0.00 | 0.00 | 72 | 1011.1 |
| 20260508044817 | 49 | 190 | 1.0 | 1.0 | 0.00 | 0.00 | 0.00 | 73 | 1010.8 |
| 20260508044314 | 49 | 190 | 1.0 | 1.0 | 0.00 | 0.00 | 0.00 | 72 | 1010.5 |
| 20260508043810 | 49 | 191 | 1.0 | 1.0 | 0.00 | 0.00 | 0.00 | 73 | 1010.8 |
| 20260508043307 | 50 | 202 | 1.0 | 2.0 | 0.00 | 0.00 | 0.00 | 72 | 1011.1 |
| 20260508042804 | 50 | 215 | 2.0 | 2.0 | 0.00 | 0.00 | 0.00 | 70 | 1011.1 |
| 20260508042306 | 50 | 228 | 4.0 | 6.0 | 0.00 | 0.00 | 0.00 | 69 | 1011.0 |
| 20260508041758 | 50 | 304 | 1.0 | 2.0 | 0.00 | 0.00 | 0.00 | 69 | 1010.8 |
| 20260508041254 | 50 | 304 | 1.0 | 2.0 | 0.00 | 0.00 | 0.00 | 69 | 1010.9 |
| 20260508040751 | 49 | 4 | 0.0 | 1.0 | 0.00 | 0.00 | 0.00 | 71 | 1011.4 |
| 20260508040248 | 49 | 4 | 0.0 | 1.0 | 0.00 | 0.00 | 0.00 | 71 | 1011.3 |
| 20260508035746 | 49 | 3 | 0.0 | 0.0 | 0.00 | 0.00 | 0.00 | 71 | 1011.5 |
| 20260508035243 | 49 | 3 | 0.0 | 0.0 | 0.00 | 0.00 | 0.00 | 71 | 1011.1 |
| 20260508034739 | 50 | 3 | 0.0 | 0.0 | 0.00 | 0.00 | 0.00 | 71 | 1011.3 |
| 20260508034237 | 50 | 3 | 0.0 | 0.0 | 0.00 | 0.00 | 0.00 | 71 | 1011.1 |
| 20260508033734 | 50 | 3 | 1.0 | 1.0 | 0.00 | 0.00 | 0.00 | 70 | 1011.1 |
| 20260508033232 | 50 | 3 | 0.0 | 0.0 | 0.00 | 0.00 | 0.00 | 70 | 1011.3 |
| 20260508032729 | 50 | 3 | 0.0 | 0.0 | 0.00 | 0.00 | 0.00 | 67 | 1011.1 |
| 20260508032226 | 50 | 3 | 0.0 | 0.0 | 0.00 | 0.00 | 0.00 | 67 | 1011.3 |
| 20260508031723 | 49 | 3 | 0.0 | 0.0 | 0.00 | 0.00 | 0.00 | 67 | 1011.3 |
| 20260508031219 | 0 | 0.0 | 0.0 | 0.00 | 0.00 | 0.00 | 1011.3 | ||
| 20260508030716 | 51 | 3 | 0.0 | 0.0 | 0.00 | 0.00 | 0.00 | 66 | 1011.5 |
| 20260508030213 | 51 | 3 | 0.0 | 0.0 | 0.00 | 0.00 | 0.00 | 66 | 1011.6 |
| 20260508025709 | 51 | 3 | 1.0 | 2.0 | 0.00 | 0.00 | 0.00 | 66 | 1011.6 |
| 20260508025207 | 51 | 3 | 1.0 | 1.0 | 0.00 | 0.00 | 0.00 | 65 | 1011.8 |
| 20260508024702 | 51 | 2 | 1.0 | 1.0 | 0.00 | 0.00 | 0.00 | 65 | 1011.5 |
| 20260508024200 | 51 | 344 | 1.0 | 1.0 | 0.00 | 0.00 | 0.00 | 67 | 1011.7 |
| 20260508023656 | 51 | 344 | 0.0 | 1.0 | 0.00 | 0.00 | 0.00 | 62 | 1011.5 |
| 20260508023154 | 52 | 328 | 0.0 | 0.0 | 0.00 | 0.00 | 0.00 | 61 | 1011.1 |
| 20260508022649 | 51 | 292 | 2.0 | 3.0 | 0.00 | 0.00 | 0.00 | 60 | 1011.5 |
| 20260508022147 | 51 | 33 | 1.0 | 2.0 | 0.00 | 0.00 | 0.00 | 63 | 1011.3 |
| 20260508021643 | 51 | 28 | 1.0 | 1.0 | 0.00 | 0.00 | 0.00 | 63 | 1011.4 |
| 20260508021138 | 51 | 28 | 0.0 | 0.0 | 0.00 | 0.00 | 0.00 | 64 | 1011.1 |
| 20260508020636 | 51 | 27 | 1.0 | 1.0 | 0.00 | 0.00 | 0.00 | 61 | 1011.3 |
| 20260508020134 | 52 | 320 | 2.0 | 2.0 | 0.00 | 0.00 | 0.00 | 59 | 1011.4 |
| 20260508015631 | 52 | 41 | 1.0 | 1.0 | 0.00 | 0.00 | 0.00 | 61 | 1011.3 |
| 20260508015128 | 52 | 305 | 2.0 | 2.0 | 0.00 | 0.00 | 0.00 | 58 | 1011.3 |
| 20260508014624 | 52 | 300 | 4.0 | 4.0 | 0.00 | 0.00 | 0.00 | 58 | 1011.4 |
| 20260508014121 | 53 | 274 | 2.0 | 2.0 | 0.00 | 0.00 | 0.00 | 57 | 1011.1 |
| 20260508013617 | 52 | 303 | 6.0 | 7.0 | 0.00 | 0.00 | 0.00 | 56 | 1011.1 |
| 20260508013114 | 52 | 277 | 4.0 | 4.0 | 0.00 | 0.00 | 0.00 | 56 | 1011.1 |
| 20260508012611 | 53 | 317 | 4.0 | 4.0 | 0.00 | 0.00 | 0.00 | 57 | 1010.9 |
| 20260508012108 | 53 | 293 | 3.0 | 3.0 | 0.00 | 0.00 | 0.00 | 57 | 1011.1 |
| 20260508011607 | 53 | 280 | 4.0 | 4.0 | 0.00 | 0.00 | 0.00 | 55 | 1011.3 |
| 20260508011104 | 53 | 287 | 3.0 | 3.0 | 0.00 | 0.00 | 0.00 | 54 | 1010.9 |
| 20260508010600 | 53 | 259 | 7.0 | 8.0 | 0.00 | 0.00 | 0.00 | 54 | 1011.1 |
| 20260508010058 | 54 | 280 | 13.0 | 14.0 | 0.00 | 0.00 | 0.00 | 52 | 1010.9 |
| 20260508005554 | 54 | 283 | 7.0 | 8.0 | 0.00 | 0.00 | 0.00 | 50 | 1011.1 |
| 20260508005051 | 54 | 327 | 3.0 | 4.0 | 0.00 | 0.00 | 0.00 | 51 | 1010.9 |
| 20260508004547 | 54 | 287 | 6.0 | 8.0 | 0.00 | 0.00 | 0.00 | 50 | 1011.1 |
| 20260508004044 | 55 | 308 | 4.0 | 4.0 | 0.00 | 0.00 | 0.00 | 50 | 1010.9 |
| 20260508003540 | 55 | 183 | 2.0 | 2.0 | 0.00 | 0.00 | 0.00 | 51 | 1010.9 |
| 20260508003038 | 55 | 306 | 4.0 | 6.0 | 0.00 | 0.00 | 0.00 | 50 | 1010.6 |
| 20260508002534 | 55 | 258 | 4.0 | 6.0 | 0.00 | 0.00 | 0.00 | 49 | 1010.5 |
| 20260508002031 | 55 | 273 | 3.0 | 3.0 | 0.00 | 0.00 | 0.00 | 49 | 1010.6 |
| 20260508001527 | 55 | 265 | 5.0 | 6.0 | 0.00 | 0.00 | 0.00 | 49 | 1010.6 |
| 20260508001023 | 55 | 291 | 3.0 | 4.0 | 0.00 | 0.00 | 0.00 | 50 | 1010.4 |
| 20260508000519 | 55 | 287 | 4.0 | 6.0 | 0.00 | 0.00 | 0.00 | 48 | 1010.6 |
| 20260508000017 | 55 | 297 | 3.0 | 3.0 | 0.00 | 0.00 | 0.00 | 49 | 1010.5 |
| 20260507235513 | 55 | 306 | 3.0 | 3.0 | 0.00 | 0.00 | 0.00 | 49 | 1010.2 |
| 20260507235011 | 55 | 273 | 2.0 | 2.0 | 0.00 | 0.00 | 0.00 | 49 | 1010.3 |
| 20260507234507 | 54 | 325 | 2.0 | 2.0 | 0.00 | 0.00 | 0.00 | 50 | 1010.3 |
| 20260507234004 | 55 | 292 | 3.0 | 4.0 | 0.00 | 0.00 | 0.00 | 50 | 1010.5 |
| 20260507233500 | 55 | 337 | 2.0 | 3.0 | 0.00 | 0.00 | 0.00 | 49 | 1010.2 |
| 20260507232959 | 56 | 333 | 3.0 | 3.0 | 0.00 | 0.00 | 0.00 | 49 | 1010.2 |
| 20260507232455 | 56 | 343 | 1.0 | 1.0 | 0.00 | 0.00 | 0.00 | 48 | 1010.4 |
| 20260507231953 | 56 | 299 | 6.0 | 7.0 | 0.00 | 0.00 | 0.00 | 46 | 1010.3 |
| 20260507231448 | 56 | 278 | 5.0 | 6.0 | 0.00 | 0.00 | 0.00 | 47 | 1010.2 |
| 20260507230946 | 56 | 276 | 5.0 | 7.0 | 0.00 | 0.00 | 0.00 | 47 | 1010.3 |
| 20260507230443 | 57 | 261 | 5.0 | 6.0 | 0.00 | 0.00 | 0.00 | 46 | 1010.3 |
| 20260507225938 | 56 | 288 | 7.0 | 8.0 | 0.00 | 0.00 | 0.00 | 47 | 1010.4 |
| 20260507225429 | 57 | 277 | 7.0 | 8.0 | 0.00 | 0.00 | 0.00 | 46 | 1010.3 |
| 20260507224925 | 57 | 263 | 7.0 | 8.0 | 0.00 | 0.00 | 0.00 | 46 | 1010.3 |
| 20260507224421 | 57 | 272 | 6.0 | 8.0 | 0.00 | 0.00 | 0.00 | 46 | 1010.4 |
| 20260507223919 | 57 | 310 | 10.0 | 11.0 | 0.00 | 0.00 | 0.00 | 44 | 1010.5 |
| 20260507223414 | 58 | 305 | 2.0 | 2.0 | 0.00 | 0.00 | 0.00 | 48 | 1010.6 |
| 20260507222911 | 57 | 20 | 1.0 | 1.0 | 0.00 | 0.00 | 0.00 | 49 | 1010.7 |
| 20260507222408 | 57 | 62 | 1.0 | 2.0 | 0.00 | 0.00 | 0.00 | 51 | 1010.5 |
| 20260507221905 | 56 | 1 | 2.0 | 3.0 | 0.00 | 0.00 | 0.00 | 50 | 1010.8 |
| 20260507221401 | 55 | 311 | 3.0 | 4.0 | 0.00 | 0.00 | 0.00 | 52 | 1010.6 |
| 20260507220857 | 55 | 60 | 2.0 | 3.0 | 0.00 | 0.00 | 0.00 | 50 | 1010.7 |
| 20260507220356 | 55 | 348 | 4.0 | 4.0 | 0.00 | 0.00 | 0.00 | 48 | 1010.7 |
| 20260507215852 | 56 | 358 | 1.0 | 2.0 | 0.00 | 0.00 | 0.00 | 51 | 1010.7 |
| 20260507215349 | 56 | 2 | 3.0 | 4.0 | 0.00 | 0.00 | 0.00 | 49 | 1010.5 |
| 20260507214846 | 57 | 325 | 3.0 | 3.0 | 0.00 | 0.00 | 0.00 | 49 | 1010.4 |
| 20260507214343 | 57 | 325 | 4.0 | 4.0 | 0.00 | 0.00 | 0.00 | 46 | 1010.3 |
| 20260507213838 | 58 | 333 | 4.0 | 4.0 | 0.00 | 0.00 | 0.00 | 49 | 1010.5 |
| 20260507213335 | 58 | 315 | 2.0 | 2.0 | 0.00 | 0.00 | 0.00 | 51 | 1010.1 |
| 20260507212832 | 56 | 340 | 2.0 | 2.0 | 0.00 | 0.00 | 0.00 | 50 | 1010.5 |
| 20260507212328 | 55 | 290 | 5.0 | 6.0 | 0.00 | 0.00 | 0.00 | 50 | 1010.5 |
| 20260507211825 | 55 | 29 | 2.0 | 3.0 | 0.00 | 0.00 | 0.00 | 51 | 1010.5 |
| 20260507211321 | 55 | 320 | 1.0 | 2.0 | 0.00 | 0.00 | 0.00 | 52 | 1010.5 |
| 20260507210818 | 55 | 311 | 4.0 | 6.0 | 0.00 | 0.00 | 0.00 | 50 | 1010.4 |
| 20260507210316 | 56 | 341 | 3.0 | 4.0 | 0.00 | 0.00 | 0.00 | 50 | 1010.5 |
| 20260507205811 | 57 | 331 | 11.0 | 14.0 | 0.00 | 0.00 | 0.00 | 47 | 1010.3 |
| 20260507205309 | 57 | 277 | 12.0 | 13.0 | 0.00 | 0.00 | 0.00 | 47 | 1010.3 |
| 20260507204805 | 57 | 53 | 1.0 | 2.0 | 0.00 | 0.00 | 0.00 | 50 | 1010.2 |
| 20260507204303 | 56 | 311 | 7.0 | 8.0 | 0.00 | 0.00 | 0.00 | 48 | 1010.5 |
| 20260507203800 | 56 | 354 | 3.0 | 3.0 | 0.00 | 0.00 | 0.00 | 53 | 1010.3 |
| 20260507203258 | 56 | 286 | 10.0 | 13.0 | 0.00 | 0.00 | 0.00 | 49 | 1010.4 |
| 20260507202754 | 56 | 292 | 10.0 | 13.0 | 0.00 | 0.00 | 0.00 | 47 | 1010.5 |
| 20260507202250 | 57 | 315 | 11.0 | 15.0 | 0.00 | 0.00 | 0.00 | 48 | 1010.4 |
| 20260507201745 | 57 | 310 | 4.0 | 6.0 | 0.00 | 0.00 | 0.00 | 51 | 1010.4 |
| 20260507201242 | 56 | 329 | 5.0 | 7.0 | 0.00 | 0.00 | 0.00 | 49 | 1010.5 |
| 20260507200738 | 57 | 281 | 13.0 | 18.0 | 0.00 | 0.00 | 0.00 | 47 | 1010.2 |
| 20260507200234 | 56 | 330 | 4.0 | 4.0 | 0.00 | 0.00 | 0.00 | 49 | 1010.3 |
| 20260507195730 | 56 | 292 | 18.0 | 21.0 | 0.00 | 0.00 | 0.00 | 47 | 1010.5 |
| 20260507195228 | 55 | 358 | 4.0 | 4.0 | 0.00 | 0.00 | 0.00 | 54 | 1010.3 |
| 20260507194725 | 55 | 358 | 4.0 | 4.0 | 0.00 | 0.00 | 0.00 | 54 | 1010.4 |
| 20260507194221 | 55 | 345 | 3.0 | 4.0 | 0.00 | 0.00 | 0.00 | 54 | 1010.8 |
| 20260507193718 | 56 | 277 | 10.0 | 11.0 | 0.00 | 0.00 | 0.00 | 50 | 1010.7 |
| 20260507193214 | 55 | 327 | 7.0 | 8.0 | 0.00 | 0.00 | 0.00 | 52 | 1010.8 |
| 20260507192710 | 55 | 337 | 5.0 | 7.0 | 0.00 | 0.00 | 0.00 | 55 | 1010.9 |
| 20260507192202 | 56 | 277 | 4.0 | 4.0 | 0.00 | 0.00 | 0.00 | 55 | 1010.8 |
| 20260507191657 | 56 | 342 | 4.0 | 6.0 | 0.00 | 0.00 | 0.00 | 54 | 1010.8 |
| 20260507191155 | 55 | 343 | 4.0 | 4.0 | 0.00 | 0.00 | 0.00 | 58 | 1010.7 |
| 20260507190652 | 55 | 317 | 5.0 | 7.0 | 0.00 | 0.00 | 0.00 | 54 | 1010.9 |
| 20260507190150 | 54 | 337 | 4.0 | 4.0 | 0.00 | 0.00 | 0.00 | 55 | 1010.8 |
| 20260507185648 | 55 | 323 | 6.0 | 8.0 | 0.00 | 0.00 | 0.00 | 55 | 1010.8 |
| 20260507185144 | 55 | 317 | 7.0 | 8.0 | 0.00 | 0.00 | 0.00 | 54 | 1010.9 |
| 20260507184642 | 55 | 341 | 5.0 | 6.0 | 0.00 | 0.00 | 0.00 | 55 | 1011.0 |
| 20260507184140 | 54 | 284 | 8.0 | 9.0 | 0.00 | 0.00 | 0.00 | 54 | 1010.9 |
| 20260507183636 | 54 | 293 | 12.0 | 15.0 | 0.00 | 0.00 | 0.00 | 53 | 1010.9 |
| 20260507183133 | 54 | 295 | 8.0 | 9.0 | 0.00 | 0.00 | 0.00 | 54 | 1011.1 |
| 20260507182630 | 54 | 255 | 11.0 | 14.0 | 0.00 | 0.00 | 0.00 | 51 | 1011.0 |
| 20260507182126 | 55 | 277 | 12.0 | 16.0 | 0.00 | 0.00 | 0.00 | 53 | 1010.9 |
| 20260507181623 | 54 | 298 | 7.0 | 9.0 | 0.00 | 0.00 | 0.00 | 56 | 1011.0 |
| 20260507181119 | 54 | 297 | 8.0 | 10.0 | 0.00 | 0.00 | 0.00 | 57 | 1011.0 |
| 20260507180615 | 55 | 289 | 13.0 | 15.0 | 0.00 | 0.00 | 0.00 | 55 | 1010.9 |
| 20260507180113 | 54 | 260 | 7.0 | 8.0 | 0.00 | 0.00 | 0.00 | 56 | 1010.9 |
| 20260507175608 | 53 | 270 | 9.0 | 10.0 | 0.00 | 0.00 | 0.00 | 56 | 1011.1 |
| 20260507175106 | 54 | 286 | 10.0 | 15.0 | 0.00 | 0.00 | 0.00 | 55 | 1011.0 |
| 20260507174603 | 54 | 252 | 11.0 | 13.0 | 0.00 | 0.00 | 0.00 | 57 | 1011.0 |
| 20260507174101 | 53 | 317 | 10.0 | 13.0 | 0.00 | 0.00 | 0.00 | 57 | 1011.4 |
| 20260507173558 | 54 | 276 | 9.0 | 9.0 | 0.00 | 0.00 | 0.00 | 56 | 1011.3 |
| 20260507173055 | 53 | 275 | 8.0 | 13.0 | 0.00 | 0.00 | 0.00 | 56 | 1011.3 |
| 20260507172550 | 53 | 283 | 7.0 | 8.0 | 0.00 | 0.00 | 0.00 | 56 | 1011.3 |
| 20260507172048 | 53 | 309 | 9.0 | 11.0 | 0.00 | 0.00 | 0.00 | 59 | 1011.6 |
| 20260507171543 | 53 | 268 | 10.0 | 13.0 | 0.00 | 0.00 | 0.00 | 57 | 1011.3 |
| 20260507171040 | 53 | 263 | 3.0 | 3.0 | 0.00 | 0.00 | 0.00 | 60 | 1011.4 |
| 20260507170537 | 52 | 243 | 10.0 | 13.0 | 0.00 | 0.00 | 0.00 | 57 | 1011.5 |
| 20260507170034 | 53 | 289 | 11.0 | 13.0 | 0.00 | 0.00 | 0.00 | 58 | 1011.7 |
| 20260507165530 | 53 | 287 | 6.0 | 7.0 | 0.00 | 0.00 | 0.00 | 59 | 1011.7 |
| 20260507165026 | 52 | 277 | 9.0 | 11.0 | 0.00 | 0.00 | 0.00 | 60 | 1011.7 |
| 20260507164522 | 52 | 289 | 4.0 | 4.0 | 0.00 | 0.00 | 0.00 | 62 | 1011.5 |
| 20260507164014 | 53 | 306 | 8.0 | 8.0 | 0.00 | 0.00 | 0.00 | 59 | 1011.8 |
| 20260507163511 | 52 | 314 | 4.0 | 6.0 | 0.00 | 0.00 | 0.00 | 60 | 1011.6 |
| 20260507163009 | 51 | 283 | 10.0 | 11.0 | 0.00 | 0.00 | 0.00 | 60 | 1011.7 |
| 20260507162504 | 51 | 291 | 15.0 | 18.0 | 0.00 | 0.00 | 0.00 | 60 | 1011.7 |
| 20260507162001 | 52 | 273 | 11.0 | 13.0 | 0.00 | 0.00 | 0.00 | 58 | 1011.7 |
| 20260507161457 | 51 | 274 | 11.0 | 14.0 | 0.00 | 0.00 | 0.00 | 58 | 1011.7 |
| 20260507160954 | 51 | 281 | 11.0 | 14.0 | 0.00 | 0.00 | 0.00 | 58 | 1011.6 |
| 20260507160450 | 52 | 290 | 11.0 | 11.0 | 0.00 | 0.00 | 0.00 | 57 | 1011.6 |
| 20260507155945 | 52 | 300 | 11.0 | 13.0 | 0.00 | 0.00 | 0.00 | 56 | 1011.6 |
| 20260507155442 | 52 | 304 | 6.0 | 8.0 | 0.00 | 0.00 | 0.00 | 58 | 1011.6 |
| 20260507154939 | 51 | 268 | 6.0 | 8.0 | 0.00 | 0.00 | 0.00 | 55 | 1011.6 |
| 20260507154435 | 51 | 290 | 6.0 | 8.0 | 0.00 | 0.00 | 0.00 | 54 | 1011.5 |
| 20260507153933 | 52 | 301 | 3.0 | 4.0 | 0.00 | 0.00 | 0.00 | 55 | 1011.4 |
| 20260507153429 | 52 | 261 | 5.0 | 7.0 | 0.00 | 0.00 | 0.00 | 58 | 1011.1 |
| 20260507152926 | 51 | 335 | 2.0 | 3.0 | 0.00 | 0.00 | 0.00 | 56 | 1011.5 |
| 20260507152422 | 51 | 299 | 6.0 | 7.0 | 0.00 | 0.00 | 0.00 | 57 | 1011.0 |
| 20260507151918 | 51 | 273 | 4.0 | 6.0 | 0.00 | 0.00 | 0.00 | 54 | 1011.4 |
| 20260507151415 | 51 | 250 | 6.0 | 7.0 | 0.00 | 0.00 | 0.00 | 56 | 1011.4 |
| 20260507150912 | 50 | 323 | 6.0 | 7.0 | 0.00 | 0.00 | 0.00 | 57 | 1011.5 |
| 20260507150408 | 50 | 275 | 6.0 | 7.0 | 0.00 | 0.00 | 0.00 | 59 | 1011.3 |
| 20260507145905 | 50 | 276 | 9.0 | 9.0 | 0.00 | 0.00 | 0.00 | 60 | 1011.6 |